sensor_id;sensor_type;location;lat;lon;timestamp;temperature;humidity
11965;DHT22;6042;41.326;19.826;2023-05-18T00:01:14;15.80;99.90
11965;DHT22;6042;41.326;19.826;2023-05-18T00:03:43;15.90;99.90
11965;DHT22;6042;41.326;19.826;2023-05-18T00:06:12;16.00;99.90
11965;DHT22;6042;41.326;19.826;2023-05-18T00:08:40;16.00;99.90
11965;DHT22;6042;41.326;19.826;2023-05-18T00:11:08;16.00;99.90
11965;DHT22;6042;41.326;19.826;2023-05-18T00:13:37;15.90;99.90
11965;DHT22;6042;41.326;19.826;2023-05-18T00:16:05;15.90;99.90
11965;DHT22;6042;41.326;19.826;2023-05-18T00:18:35;15.70;99.90
11965;DHT22;6042;41.326;19.826;2023-05-18T00:21:04;15.70;99.90
11965;DHT22;6042;41.326;19.826;2023-05-18T00:23:32;15.70;99.90
11965;DHT22;6042;41.326;19.826;2023-05-18T00:26:01;15.70;99.90
11965;DHT22;6042;41.326;19.826;2023-05-18T00:28:30;15.60;99.90
11965;DHT22;6042;41.326;19.826;2023-05-18T00:30:58;15.60;99.90
11965;DHT22;6042;41.326;19.826;2023-05-18T00:33:27;15.50;99.90
11965;DHT22;6042;41.326;19.826;2023-05-18T00:35:57;15.50;99.90
11965;DHT22;6042;41.326;19.826;2023-05-18T00:38:25;15.40;99.90
11965;DHT22;6042;41.326;19.826;2023-05-18T00:40:54;15.50;99.90
11965;DHT22;6042;41.326;19.826;2023-05-18T00:43:22;15.50;99.90
11965;DHT22;6042;41.326;19.826;2023-05-18T00:45:51;15.50;99.90
11965;DHT22;6042;41.326;19.826;2023-05-18T00:48:19;15.50;99.90
11965;DHT22;6042;41.326;19.826;2023-05-18T00:50:48;15.50;99.90
11965;DHT22;6042;41.326;19.826;2023-05-18T00:53:17;15.50;99.90
11965;DHT22;6042;41.326;19.826;2023-05-18T00:55:46;15.50;99.90
11965;DHT22;6042;41.326;19.826;2023-05-18T00:58:15;15.40;99.90
11965;DHT22;6042;41.326;19.826;2023-05-18T01:00:44;15.40;99.90
11965;DHT22;6042;41.326;19.826;2023-05-18T01:03:13;15.30;99.90
11965;DHT22;6042;41.326;19.826;2023-05-18T01:05:41;15.20;99.90
11965;DHT22;6042;41.326;19.826;2023-05-18T01:08:10;15.20;99.90
11965;DHT22;6042;41.326;19.826;2023-05-18T01:10:40;15.10;99.90
11965;DHT22;6042;41.326;19.826;2023-05-18T01:13:17;15.10;99.90
11965;DHT22;6042;41.326;19.826;2023-05-18T01:15:50;15.20;99.90
11965;DHT22;6042;41.326;19.826;2023-05-18T01:18:26;15.10;99.90
11965;DHT22;6042;41.326;19.826;2023-05-18T01:20:58;15.10;99.90
11965;DHT22;6042;41.326;19.826;2023-05-18T01:24:00;15.20;99.90
11965;DHT22;6042;41.326;19.826;2023-05-18T01:26:33;15.10;99.90
11965;DHT22;6042;41.326;19.826;2023-05-18T01:29:08;15.10;99.90
11965;DHT22;6042;41.326;19.826;2023-05-18T01:31:37;15.00;99.90
11965;DHT22;6042;41.326;19.826;2023-05-18T01:34:06;15.10;99.90
11965;DHT22;6042;41.326;19.826;2023-05-18T01:36:34;15.10;99.90
11965;DHT22;6042;41.326;19.826;2023-05-18T01:39:03;15.10;99.90
11965;DHT22;6042;41.326;19.826;2023-05-18T01:41:36;15.00;99.90
11965;DHT22;6042;41.326;19.826;2023-05-18T01:44:09;15.10;99.90
11965;DHT22;6042;41.326;19.826;2023-05-18T01:46:48;15.20;99.90
11965;DHT22;6042;41.326;19.826;2023-05-18T01:49:26;15.20;99.90
11965;DHT22;6042;41.326;19.826;2023-05-18T01:51:59;15.00;99.90
11965;DHT22;6042;41.326;19.826;2023-05-18T01:54:29;15.00;99.90
11965;DHT22;6042;41.326;19.826;2023-05-18T01:57:00;14.90;99.90
11965;DHT22;6042;41.326;19.826;2023-05-18T01:59:30;14.80;99.90
11965;DHT22;6042;41.326;19.826;2023-05-18T02:01:59;14.80;99.90
11965;DHT22;6042;41.326;19.826;2023-05-18T02:04:28;14.80;99.90
11965;DHT22;6042;41.326;19.826;2023-05-18T02:06:56;14.80;99.90
11965;DHT22;6042;41.326;19.826;2023-05-18T02:09:25;15.00;99.90
11965;DHT22;6042;41.326;19.826;2023-05-18T02:11:53;15.00;99.90
11965;DHT22;6042;41.326;19.826;2023-05-18T02:14:25;15.00;99.90
11965;DHT22;6042;41.326;19.826;2023-05-18T02:16:54;15.10;99.90
11965;DHT22;6042;41.326;19.826;2023-05-18T02:19:23;15.00;99.90
11965;DHT22;6042;41.326;19.826;2023-05-18T02:21:52;15.10;99.90
11965;DHT22;6042;41.326;19.826;2023-05-18T02:24:21;15.10;99.90
11965;DHT22;6042;41.326;19.826;2023-05-18T02:26:50;14.90;99.90
11965;DHT22;6042;41.326;19.826;2023-05-18T02:29:19;14.90;99.90
11965;DHT22;6042;41.326;19.826;2023-05-18T02:31:48;14.90;99.90
11965;DHT22;6042;41.326;19.826;2023-05-18T02:34:17;14.90;99.90
11965;DHT22;6042;41.326;19.826;2023-05-18T02:36:47;14.90;99.90
11965;DHT22;6042;41.326;19.826;2023-05-18T02:39:16;14.90;99.90
11965;DHT22;6042;41.326;19.826;2023-05-18T02:41:45;14.90;99.90
11965;DHT22;6042;41.326;19.826;2023-05-18T02:44:13;14.80;99.90
11965;DHT22;6042;41.326;19.826;2023-05-18T02:46:42;14.90;99.90
11965;DHT22;6042;41.326;19.826;2023-05-18T02:49:12;14.90;99.90
11965;DHT22;6042;41.326;19.826;2023-05-18T02:51:41;14.80;99.90
11965;DHT22;6042;41.326;19.826;2023-05-18T02:54:10;14.90;99.90
11965;DHT22;6042;41.326;19.826;2023-05-18T02:56:40;14.90;99.90
11965;DHT22;6042;41.326;19.826;2023-05-18T02:59:17;15.00;99.90
11965;DHT22;6042;41.326;19.826;2023-05-18T03:01:45;15.00;99.90
11965;DHT22;6042;41.326;19.826;2023-05-18T03:04:15;15.00;99.90
11965;DHT22;6042;41.326;19.826;2023-05-18T03:06:48;15.00;99.90
11965;DHT22;6042;41.326;19.826;2023-05-18T03:09:21;15.00;99.90
11965;DHT22;6042;41.326;19.826;2023-05-18T03:11:52;15.00;99.90
11965;DHT22;6042;41.326;19.826;2023-05-18T03:14:21;15.00;99.90
11965;DHT22;6042;41.326;19.826;2023-05-18T03:16:49;15.00;99.90
11965;DHT22;6042;41.326;19.826;2023-05-18T03:19:24;15.00;99.90
11965;DHT22;6042;41.326;19.826;2023-05-18T03:21:53;15.00;99.90
11965;DHT22;6042;41.326;19.826;2023-05-18T03:24:24;14.90;99.90
11965;DHT22;6042;41.326;19.826;2023-05-18T03:26:59;15.00;99.90
11965;DHT22;6042;41.326;19.826;2023-05-18T03:29:28;14.90;99.90
11965;DHT22;6042;41.326;19.826;2023-05-18T03:32:01;14.90;99.90
11965;DHT22;6042;41.326;19.826;2023-05-18T03:34:31;14.90;99.90
11965;DHT22;6042;41.326;19.826;2023-05-18T03:36:59;14.90;99.90
11965;DHT22;6042;41.326;19.826;2023-05-18T03:39:29;14.80;99.90
11965;DHT22;6042;41.326;19.826;2023-05-18T03:41:58;14.80;99.90
11965;DHT22;6042;41.326;19.826;2023-05-18T03:44:27;14.80;99.90
11965;DHT22;6042;41.326;19.826;2023-05-18T03:46:56;14.80;99.90
11965;DHT22;6042;41.326;19.826;2023-05-18T03:49:25;14.80;99.90
11965;DHT22;6042;41.326;19.826;2023-05-18T03:51:57;14.70;99.90
11965;DHT22;6042;41.326;19.826;2023-05-18T03:54:25;14.80;99.90
11965;DHT22;6042;41.326;19.826;2023-05-18T03:56:54;14.90;99.90
11965;DHT22;6042;41.326;19.826;2023-05-18T03:59:22;14.90;99.90
11965;DHT22;6042;41.326;19.826;2023-05-18T04:01:51;15.00;99.90
11965;DHT22;6042;41.326;19.826;2023-05-18T04:04:21;15.00;99.90
11965;DHT22;6042;41.326;19.826;2023-05-18T04:06:54;15.00;99.90
11965;DHT22;6042;41.326;19.826;2023-05-18T04:09:24;14.90;99.90
11965;DHT22;6042;41.326;19.826;2023-05-18T04:11:54;14.90;99.90
11965;DHT22;6042;41.326;19.826;2023-05-18T04:14:23;14.80;99.90
11965;DHT22;6042;41.326;19.826;2023-05-18T04:16:54;15.00;99.90
11965;DHT22;6042;41.326;19.826;2023-05-18T04:19:24;15.10;99.90
11965;DHT22;6042;41.326;19.826;2023-05-18T04:21:52;15.10;99.90
11965;DHT22;6042;41.326;19.826;2023-05-18T04:24:21;15.10;99.90
11965;DHT22;6042;41.326;19.826;2023-05-18T04:26:51;15.10;99.90
11965;DHT22;6042;41.326;19.826;2023-05-18T04:29:19;15.10;99.90
11965;DHT22;6042;41.326;19.826;2023-05-18T04:31:48;15.20;99.90
11965;DHT22;6042;41.326;19.826;2023-05-18T04:34:17;15.20;99.90
11965;DHT22;6042;41.326;19.826;2023-05-18T04:36:46;15.20;99.90
11965;DHT22;6042;41.326;19.826;2023-05-18T04:39:14;15.30;99.90
11965;DHT22;6042;41.326;19.826;2023-05-18T04:41:44;15.40;99.90
11965;DHT22;6042;41.326;19.826;2023-05-18T04:44:15;15.40;99.90
11965;DHT22;6042;41.326;19.826;2023-05-18T04:46:46;15.30;99.90
11965;DHT22;6042;41.326;19.826;2023-05-18T04:49:14;15.50;99.90
11965;DHT22;6042;41.326;19.826;2023-05-18T04:51:43;15.60;99.90
11965;DHT22;6042;41.326;19.826;2023-05-18T04:54:13;15.70;99.90
11965;DHT22;6042;41.326;19.826;2023-05-18T04:56:42;15.70;99.90
11965;DHT22;6042;41.326;19.826;2023-05-18T04:59:14;15.90;99.90
11965;DHT22;6042;41.326;19.826;2023-05-18T05:01:44;16.00;99.90
11965;DHT22;6042;41.326;19.826;2023-05-18T05:04:13;16.10;99.90
11965;DHT22;6042;41.326;19.826;2023-05-18T05:06:42;16.30;99.90
11965;DHT22;6042;41.326;19.826;2023-05-18T05:09:11;16.30;99.90
11965;DHT22;6042;41.326;19.826;2023-05-18T05:11:40;16.40;99.90
11965;DHT22;6042;41.326;19.826;2023-05-18T05:14:09;16.40;99.90
11965;DHT22;6042;41.326;19.826;2023-05-18T05:16:39;16.60;99.90
11965;DHT22;6042;41.326;19.826;2023-05-18T05:19:07;16.70;99.90
11965;DHT22;6042;41.326;19.826;2023-05-18T05:21:36;16.80;99.90
11965;DHT22;6042;41.326;19.826;2023-05-18T05:24:04;16.80;99.90
11965;DHT22;6042;41.326;19.826;2023-05-18T05:26:35;16.90;99.90
11965;DHT22;6042;41.326;19.826;2023-05-18T05:29:03;17.00;99.90
11965;DHT22;6042;41.326;19.826;2023-05-18T05:31:32;17.10;99.90
11965;DHT22;6042;41.326;19.826;2023-05-18T05:34:02;17.50;99.90
11965;DHT22;6042;41.326;19.826;2023-05-18T05:36:30;18.00;99.90
11965;DHT22;6042;41.326;19.826;2023-05-18T05:38:59;18.40;99.90
11965;DHT22;6042;41.326;19.826;2023-05-18T05:41:28;18.20;99.90
11965;DHT22;6042;41.326;19.826;2023-05-18T05:43:59;18.20;99.90
11965;DHT22;6042;41.326;19.826;2023-05-18T05:46:28;18.10;99.90
11965;DHT22;6042;41.326;19.826;2023-05-18T05:48:59;18.10;99.90
11965;DHT22;6042;41.326;19.826;2023-05-18T05:51:30;18.00;99.90
11965;DHT22;6042;41.326;19.826;2023-05-18T05:53:58;17.90;99.90
11965;DHT22;6042;41.326;19.826;2023-05-18T05:56:27;17.90;99.90
11965;DHT22;6042;41.326;19.826;2023-05-18T05:58:55;17.80;99.90
11965;DHT22;6042;41.326;19.826;2023-05-18T06:01:24;17.80;99.90
11965;DHT22;6042;41.326;19.826;2023-05-18T06:03:53;17.80;99.90
11965;DHT22;6042;41.326;19.826;2023-05-18T06:06:22;17.80;99.90
11965;DHT22;6042;41.326;19.826;2023-05-18T06:08:52;18.10;99.90
11965;DHT22;6042;41.326;19.826;2023-05-18T06:11:20;18.20;99.90
11965;DHT22;6042;41.326;19.826;2023-05-18T06:13:49;18.30;99.90
11965;DHT22;6042;41.326;19.826;2023-05-18T06:16:19;18.40;99.90
11965;DHT22;6042;41.326;19.826;2023-05-18T06:18:47;18.50;99.90
11965;DHT22;6042;41.326;19.826;2023-05-18T06:21:16;18.80;99.90
11965;DHT22;6042;41.326;19.826;2023-05-18T06:23:45;18.90;99.90
11965;DHT22;6042;41.326;19.826;2023-05-18T06:26:41;19.00;99.90
11965;DHT22;6042;41.326;19.826;2023-05-18T06:29:29;19.00;99.90
11965;DHT22;6042;41.326;19.826;2023-05-18T06:32:23;19.10;99.90
11965;DHT22;6042;41.326;19.826;2023-05-18T06:34:53;19.20;99.90
11965;DHT22;6042;41.326;19.826;2023-05-18T06:37:22;19.00;99.90
11965;DHT22;6042;41.326;19.826;2023-05-18T06:39:51;18.90;99.90
11965;DHT22;6042;41.326;19.826;2023-05-18T06:42:20;19.00;99.90
11965;DHT22;6042;41.326;19.826;2023-05-18T06:44:59;19.10;99.90
11965;DHT22;6042;41.326;19.826;2023-05-18T06:47:52;19.20;99.90
11965;DHT22;6042;41.326;19.826;2023-05-18T06:50:22;19.30;99.90
11965;DHT22;6042;41.326;19.826;2023-05-18T06:52:50;19.40;99.90
11965;DHT22;6042;41.326;19.826;2023-05-18T06:55:19;19.40;99.90
11965;DHT22;6042;41.326;19.826;2023-05-18T06:57:49;19.60;99.90
11965;DHT22;6042;41.326;19.826;2023-05-18T07:00:44;19.60;99.90
11965;DHT22;6042;41.326;19.826;2023-05-18T07:03:16;19.70;99.90
11965;DHT22;6042;41.326;19.826;2023-05-18T07:05:44;19.80;99.90
11965;DHT22;6042;41.326;19.826;2023-05-18T07:08:13;19.70;99.90
11965;DHT22;6042;41.326;19.826;2023-05-18T07:10:42;19.80;99.90
11965;DHT22;6042;41.326;19.826;2023-05-18T07:13:12;20.00;99.90
11965;DHT22;6042;41.326;19.826;2023-05-18T07:15:40;20.10;99.90
11965;DHT22;6042;41.326;19.826;2023-05-18T07:18:09;20.00;99.90
11965;DHT22;6042;41.326;19.826;2023-05-18T07:20:37;19.90;99.90
11965;DHT22;6042;41.326;19.826;2023-05-18T07:23:05;20.10;99.90
11965;DHT22;6042;41.326;19.826;2023-05-18T07:25:34;20.00;99.90
11965;DHT22;6042;41.326;19.826;2023-05-18T07:28:02;19.90;99.90
11965;DHT22;6042;41.326;19.826;2023-05-18T07:30:32;20.00;99.90
11965;DHT22;6042;41.326;19.826;2023-05-18T07:33:01;20.10;99.90
11965;DHT22;6042;41.326;19.826;2023-05-18T07:35:30;20.40;99.90
11965;DHT22;6042;41.326;19.826;2023-05-18T07:37:59;20.60;99.90
11965;DHT22;6042;41.326;19.826;2023-05-18T07:40:28;20.80;99.90
11965;DHT22;6042;41.326;19.826;2023-05-18T07:42:56;20.80;99.90
11965;DHT22;6042;41.326;19.826;2023-05-18T07:45:24;20.90;99.90
11965;DHT22;6042;41.326;19.826;2023-05-18T07:47:55;21.00;99.90
11965;DHT22;6042;41.326;19.826;2023-05-18T07:50:23;21.00;99.90
11965;DHT22;6042;41.326;19.826;2023-05-18T07:52:52;21.00;99.90
11965;DHT22;6042;41.326;19.826;2023-05-18T07:55:20;20.90;99.90
11965;DHT22;6042;41.326;19.826;2023-05-18T07:57:49;20.80;99.90
11965;DHT22;6042;41.326;19.826;2023-05-18T08:00:18;20.70;99.90
11965;DHT22;6042;41.326;19.826;2023-05-18T08:02:47;20.70;99.90
11965;DHT22;6042;41.326;19.826;2023-05-18T08:05:17;20.70;99.90
11965;DHT22;6042;41.326;19.826;2023-05-18T08:07:48;20.80;99.90
11965;DHT22;6042;41.326;19.826;2023-05-18T08:10:17;20.90;99.90
11965;DHT22;6042;41.326;19.826;2023-05-18T08:12:45;20.90;99.90
11965;DHT22;6042;41.326;19.826;2023-05-18T08:15:13;20.70;99.90
11965;DHT22;6042;41.326;19.826;2023-05-18T08:17:42;20.50;99.90
11965;DHT22;6042;41.326;19.826;2023-05-18T08:20:11;20.60;99.90
11965;DHT22;6042;41.326;19.826;2023-05-18T08:22:41;20.70;99.90
11965;DHT22;6042;41.326;19.826;2023-05-18T08:25:09;20.90;99.90
11965;DHT22;6042;41.326;19.826;2023-05-18T08:27:38;21.20;99.90
11965;DHT22;6042;41.326;19.826;2023-05-18T08:30:07;21.40;99.90
11965;DHT22;6042;41.326;19.826;2023-05-18T08:32:36;21.40;99.90
11965;DHT22;6042;41.326;19.826;2023-05-18T08:35:05;21.40;99.90
11965;DHT22;6042;41.326;19.826;2023-05-18T08:37:34;21.40;99.90
11965;DHT22;6042;41.326;19.826;2023-05-18T08:40:06;21.50;99.90
11965;DHT22;6042;41.326;19.826;2023-05-18T08:42:39;21.70;99.90
11965;DHT22;6042;41.326;19.826;2023-05-18T08:45:21;21.90;99.90
11965;DHT22;6042;41.326;19.826;2023-05-18T08:47:53;22.00;99.90
11965;DHT22;6042;41.326;19.826;2023-05-18T08:50:25;21.80;99.90
11965;DHT22;6042;41.326;19.826;2023-05-18T08:52:54;21.80;99.90
11965;DHT22;6042;41.326;19.826;2023-05-18T08:55:28;21.90;99.90
11965;DHT22;6042;41.326;19.826;2023-05-18T08:57:58;22.10;99.90
11965;DHT22;6042;41.326;19.826;2023-05-18T09:00:28;22.00;99.90
11965;DHT22;6042;41.326;19.826;2023-05-18T09:02:57;21.90;99.90
11965;DHT22;6042;41.326;19.826;2023-05-18T09:05:25;21.70;99.90
11965;DHT22;6042;41.326;19.826;2023-05-18T09:07:55;21.90;99.90
11965;DHT22;6042;41.326;19.826;2023-05-18T09:10:24;21.90;99.90
11965;DHT22;6042;41.326;19.826;2023-05-18T09:12:55;21.90;99.90
11965;DHT22;6042;41.326;19.826;2023-05-18T09:15:24;22.00;99.90
11965;DHT22;6042;41.326;19.826;2023-05-18T09:17:54;22.30;99.90
11965;DHT22;6042;41.326;19.826;2023-05-18T09:20:22;22.20;99.90
11965;DHT22;6042;41.326;19.826;2023-05-18T09:22:52;21.90;99.90
11965;DHT22;6042;41.326;19.826;2023-05-18T09:25:23;21.90;99.90
11965;DHT22;6042;41.326;19.826;2023-05-18T09:27:52;21.70;99.90
11965;DHT22;6042;41.326;19.826;2023-05-18T09:30:24;21.70;99.90
11965;DHT22;6042;41.326;19.826;2023-05-18T09:32:53;21.60;99.90
11965;DHT22;6042;41.326;19.826;2023-05-18T09:35:24;21.60;99.90
11965;DHT22;6042;41.326;19.826;2023-05-18T09:37:52;21.70;99.90
11965;DHT22;6042;41.326;19.826;2023-05-18T09:40:27;21.90;99.90
11965;DHT22;6042;41.326;19.826;2023-05-18T09:42:57;22.10;99.90
11965;DHT22;6042;41.326;19.826;2023-05-18T09:45:27;22.10;99.90
11965;DHT22;6042;41.326;19.826;2023-05-18T09:47:55;21.90;99.90
11965;DHT22;6042;41.326;19.826;2023-05-18T09:50:24;22.00;99.90
11965;DHT22;6042;41.326;19.826;2023-05-18T09:52:53;22.10;99.90
11965;DHT22;6042;41.326;19.826;2023-05-18T09:55:23;22.30;99.90
11965;DHT22;6042;41.326;19.826;2023-05-18T09:57:52;22.30;99.90
11965;DHT22;6042;41.326;19.826;2023-05-18T10:00:20;22.30;99.70
11965;DHT22;6042;41.326;19.826;2023-05-18T10:02:52;22.10;99.90
11965;DHT22;6042;41.326;19.826;2023-05-18T10:05:23;22.40;99.90
11965;DHT22;6042;41.326;19.826;2023-05-18T10:07:53;22.40;99.90
11965;DHT22;6042;41.326;19.826;2023-05-18T10:10:23;22.50;99.90
11965;DHT22;6042;41.326;19.826;2023-05-18T10:12:54;22.50;99.90
11965;DHT22;6042;41.326;19.826;2023-05-18T10:15:23;22.40;99.70
11965;DHT22;6042;41.326;19.826;2023-05-18T10:17:55;22.50;99.80
11965;DHT22;6042;41.326;19.826;2023-05-18T10:20:24;22.40;99.40
11965;DHT22;6042;41.326;19.826;2023-05-18T10:22:54;22.40;98.50
11965;DHT22;6042;41.326;19.826;2023-05-18T10:25:25;22.50;98.20
11965;DHT22;6042;41.326;19.826;2023-05-18T10:27:56;22.50;98.60
11965;DHT22;6042;41.326;19.826;2023-05-18T10:30:27;22.50;99.10
11965;DHT22;6042;41.326;19.826;2023-05-18T10:32:58;22.70;99.60
11965;DHT22;6042;41.326;19.826;2023-05-18T10:35:28;23.00;98.00
11965;DHT22;6042;41.326;19.826;2023-05-18T10:37:58;23.00;98.60
11965;DHT22;6042;41.326;19.826;2023-05-18T10:40:29;22.80;98.60
11965;DHT22;6042;41.326;19.826;2023-05-18T10:42:58;22.90;98.90
11965;DHT22;6042;41.326;19.826;2023-05-18T10:45:32;23.20;99.70
11965;DHT22;6042;41.326;19.826;2023-05-18T10:48:03;23.40;99.90
11965;DHT22;6042;41.326;19.826;2023-05-18T10:50:37;23.30;99.90
11965;DHT22;6042;41.326;19.826;2023-05-18T10:53:08;23.20;99.90
11965;DHT22;6042;41.326;19.826;2023-05-18T10:55:37;23.20;99.90
11965;DHT22;6042;41.326;19.826;2023-05-18T10:58:09;23.40;99.90
11965;DHT22;6042;41.326;19.826;2023-05-18T11:00:41;23.20;99.90
11965;DHT22;6042;41.326;19.826;2023-05-18T11:03:13;23.10;99.90
11965;DHT22;6042;41.326;19.826;2023-05-18T11:05:42;23.10;99.90
11965;DHT22;6042;41.326;19.826;2023-05-18T11:08:11;22.90;99.90
11965;DHT22;6042;41.326;19.826;2023-05-18T11:10:42;22.80;99.90
11965;DHT22;6042;41.326;19.826;2023-05-18T11:13:14;23.00;99.90
11965;DHT22;6042;41.326;19.826;2023-05-18T11:16:15;23.20;99.90
11965;DHT22;6042;41.326;19.826;2023-05-18T11:18:46;23.50;99.90
11965;DHT22;6042;41.326;19.826;2023-05-18T11:21:49;23.50;99.90
11965;DHT22;6042;41.326;19.826;2023-05-18T11:24:20;23.40;99.90
11965;DHT22;6042;41.326;19.826;2023-05-18T11:26:51;23.50;99.90
11965;DHT22;6042;41.326;19.826;2023-05-18T11:29:22;23.50;99.90
11965;DHT22;6042;41.326;19.826;2023-05-18T11:31:52;23.20;99.90
11965;DHT22;6042;41.326;19.826;2023-05-18T11:34:42;23.10;99.90
11965;DHT22;6042;41.326;19.826;2023-05-18T11:37:13;23.10;99.90
11965;DHT22;6042;41.326;19.826;2023-05-18T11:39:52;23.20;99.90
11965;DHT22;6042;41.326;19.826;2023-05-18T11:42:31;23.40;99.90
11965;DHT22;6042;41.326;19.826;2023-05-18T11:45:11;23.50;99.90
11965;DHT22;6042;41.326;19.826;2023-05-18T11:47:40;23.40;99.90
11965;DHT22;6042;41.326;19.826;2023-05-18T11:50:10;23.50;99.90
11965;DHT22;6042;41.326;19.826;2023-05-18T11:52:46;23.40;99.90
11965;DHT22;6042;41.326;19.826;2023-05-18T11:55:17;23.60;99.90
11965;DHT22;6042;41.326;19.826;2023-05-18T11:57:48;23.60;99.90
11965;DHT22;6042;41.326;19.826;2023-05-18T12:00:19;23.50;99.90
11965;DHT22;6042;41.326;19.826;2023-05-18T12:02:48;23.80;99.90
11965;DHT22;6042;41.326;19.826;2023-05-18T12:05:20;24.10;99.90
11965;DHT22;6042;41.326;19.826;2023-05-18T12:07:52;24.30;99.90
11965;DHT22;6042;41.326;19.826;2023-05-18T12:10:21;23.90;99.90
11965;DHT22;6042;41.326;19.826;2023-05-18T12:12:51;23.20;99.90
11965;DHT22;6042;41.326;19.826;2023-05-18T12:15:21;22.50;99.90
11965;DHT22;6042;41.326;19.826;2023-05-18T12:17:50;21.90;99.90
11965;DHT22;6042;41.326;19.826;2023-05-18T12:20:21;21.10;99.90
11965;DHT22;6042;41.326;19.826;2023-05-18T12:22:53;20.90;99.90
11965;DHT22;6042;41.326;19.826;2023-05-18T12:25:24;20.80;99.90
11965;DHT22;6042;41.326;19.826;2023-05-18T12:27:54;20.60;99.90
11965;DHT22;6042;41.326;19.826;2023-05-18T12:30:24;20.60;99.90
11965;DHT22;6042;41.326;19.826;2023-05-18T12:33:01;20.40;99.90
11965;DHT22;6042;41.326;19.826;2023-05-18T12:35:31;20.00;99.90
11965;DHT22;6042;41.326;19.826;2023-05-18T12:38:00;19.80;99.90
11965;DHT22;6042;41.326;19.826;2023-05-18T12:40:34;19.80;99.90
11965;DHT22;6042;41.326;19.826;2023-05-18T12:43:05;19.70;99.90
11965;DHT22;6042;41.326;19.826;2023-05-18T12:45:33;19.50;99.90
11965;DHT22;6042;41.326;19.826;2023-05-18T12:48:05;19.50;99.90
11965;DHT22;6042;41.326;19.826;2023-05-18T12:50:45;19.60;99.90
11965;DHT22;6042;41.326;19.826;2023-05-18T12:53:13;19.40;99.90
11965;DHT22;6042;41.326;19.826;2023-05-18T12:55:42;19.50;99.90
11965;DHT22;6042;41.326;19.826;2023-05-18T12:58:13;19.70;99.90
11965;DHT22;6042;41.326;19.826;2023-05-18T13:00:47;19.70;99.90
11965;DHT22;6042;41.326;19.826;2023-05-18T13:03:17;19.50;99.90
11965;DHT22;6042;41.326;19.826;2023-05-18T13:06:01;19.50;99.90
11965;DHT22;6042;41.326;19.826;2023-05-18T13:08:31;19.60;99.90
11965;DHT22;6042;41.326;19.826;2023-05-18T13:11:01;19.80;99.90
11965;DHT22;6042;41.326;19.826;2023-05-18T13:13:58;20.00;99.90
11965;DHT22;6042;41.326;19.826;2023-05-18T13:16:27;20.10;99.90
11965;DHT22;6042;41.326;19.826;2023-05-18T13:18:58;20.10;99.90
11965;DHT22;6042;41.326;19.826;2023-05-18T13:21:28;20.40;99.90
11965;DHT22;6042;41.326;19.826;2023-05-18T13:23:57;20.60;99.90
11965;DHT22;6042;41.326;19.826;2023-05-18T13:26:25;20.80;99.90
11965;DHT22;6042;41.326;19.826;2023-05-18T13:28:55;20.70;99.90
11965;DHT22;6042;41.326;19.826;2023-05-18T13:31:25;20.70;99.90
11965;DHT22;6042;41.326;19.826;2023-05-18T13:33:55;20.80;99.90
11965;DHT22;6042;41.326;19.826;2023-05-18T13:36:24;20.80;99.90
11965;DHT22;6042;41.326;19.826;2023-05-18T13:38:57;20.90;99.90
11965;DHT22;6042;41.326;19.826;2023-05-18T13:41:25;20.90;99.90
11965;DHT22;6042;41.326;19.826;2023-05-18T13:43:54;21.00;99.90
11965;DHT22;6042;41.326;19.826;2023-05-18T13:46:22;21.00;99.90
11965;DHT22;6042;41.326;19.826;2023-05-18T13:48:51;21.20;99.90
11965;DHT22;6042;41.326;19.826;2023-05-18T13:51:19;21.40;99.90
11965;DHT22;6042;41.326;19.826;2023-05-18T13:53:48;21.50;99.90
11965;DHT22;6042;41.326;19.826;2023-05-18T13:56:17;21.70;99.90
11965;DHT22;6042;41.326;19.826;2023-05-18T13:58:47;22.20;99.90
11965;DHT22;6042;41.326;19.826;2023-05-18T14:01:16;22.50;99.90
11965;DHT22;6042;41.326;19.826;2023-05-18T14:03:48;22.40;99.90
11965;DHT22;6042;41.326;19.826;2023-05-18T14:06:17;21.90;99.90
11965;DHT22;6042;41.326;19.826;2023-05-18T14:08:48;21.80;99.90
11965;DHT22;6042;41.326;19.826;2023-05-18T14:11:18;21.40;99.90
11965;DHT22;6042;41.326;19.826;2023-05-18T14:13:47;21.40;99.90
11965;DHT22;6042;41.326;19.826;2023-05-18T14:16:16;21.80;99.90
11965;DHT22;6042;41.326;19.826;2023-05-18T14:18:45;22.80;99.90
11965;DHT22;6042;41.326;19.826;2023-05-18T14:21:13;24.80;99.90
11965;DHT22;6042;41.326;19.826;2023-05-18T14:23:42;25.80;99.90
11965;DHT22;6042;41.326;19.826;2023-05-18T14:26:11;26.10;99.90
11965;DHT22;6042;41.326;19.826;2023-05-18T14:28:41;26.80;99.90
11965;DHT22;6042;41.326;19.826;2023-05-18T14:31:10;28.00;99.90
11965;DHT22;6042;41.326;19.826;2023-05-18T14:33:39;28.90;98.80
11965;DHT22;6042;41.326;19.826;2023-05-18T14:36:08;29.40;98.60
11965;DHT22;6042;41.326;19.826;2023-05-18T14:38:37;29.60;96.70
11965;DHT22;6042;41.326;19.826;2023-05-18T14:41:05;29.70;97.00
11965;DHT22;6042;41.326;19.826;2023-05-18T14:43:35;29.60;96.30
11965;DHT22;6042;41.326;19.826;2023-05-18T14:46:05;29.70;96.10
11965;DHT22;6042;41.326;19.826;2023-05-18T14:48:36;29.70;95.90
11965;DHT22;6042;41.326;19.826;2023-05-18T14:51:04;29.70;96.10
11965;DHT22;6042;41.326;19.826;2023-05-18T14:53:33;29.20;95.80
11965;DHT22;6042;41.326;19.826;2023-05-18T14:56:02;29.00;96.60
11965;DHT22;6042;41.326;19.826;2023-05-18T14:58:35;29.20;96.00
11965;DHT22;6042;41.326;19.826;2023-05-18T15:01:05;29.90;95.10
11965;DHT22;6042;41.326;19.826;2023-05-18T15:03:34;29.80;94.80
11965;DHT22;6042;41.326;19.826;2023-05-18T15:06:03;28.70;96.00
11965;DHT22;6042;41.326;19.826;2023-05-18T15:08:31;28.30;96.70
11965;DHT22;6042;41.326;19.826;2023-05-18T15:11:00;28.20;96.60
11965;DHT22;6042;41.326;19.826;2023-05-18T15:13:29;28.10;96.90
11965;DHT22;6042;41.326;19.826;2023-05-18T15:15:58;27.20;97.80
11965;DHT22;6042;41.326;19.826;2023-05-18T15:18:28;26.20;99.50
11965;DHT22;6042;41.326;19.826;2023-05-18T15:20:56;27.10;98.70
11965;DHT22;6042;41.326;19.826;2023-05-18T15:23:25;27.50;97.60
11965;DHT22;6042;41.326;19.826;2023-05-18T15:25:55;27.40;97.60
11965;DHT22;6042;41.326;19.826;2023-05-18T15:28:24;26.40;98.20
11965;DHT22;6042;41.326;19.826;2023-05-18T15:30:52;26.00;99.20
11965;DHT22;6042;41.326;19.826;2023-05-18T15:33:21;25.50;99.40
11965;DHT22;6042;41.326;19.826;2023-05-18T15:35:51;24.00;99.90
11965;DHT22;6042;41.326;19.826;2023-05-18T15:38:20;23.40;99.90
11965;DHT22;6042;41.326;19.826;2023-05-18T15:40:49;23.20;99.90
11965;DHT22;6042;41.326;19.826;2023-05-18T15:43:18;24.20;99.90
11965;DHT22;6042;41.326;19.826;2023-05-18T15:45:47;25.30;99.90
11965;DHT22;6042;41.326;19.826;2023-05-18T15:48:16;25.00;99.90
11965;DHT22;6042;41.326;19.826;2023-05-18T15:50:45;24.20;99.90